Time;durP1;ratioP1;P1;durP2;ratioP2;P2;SDS_P1;SDS_P2;PMS_P1;PMS_P2;Temp;Humidity;BMP_temperature;BMP_pressure;BME280_temperature;BME280_humidity;BME280_pressure;Samples;Min_cycle;Max_cycle;Signal;HPM_P1;HPM_P2
2023/10/27 05:18:05;;;;;;;;;;;;;;;10.07;100.00;98307.66;1862289;76;20099;-66
2023/10/27 05:20:43;;;;;;;;;;;;;;;10.06;100.00;98304.70;1832457;78;20162;-68
2023/10/27 05:23:12;;;;;;;;;;;;;;;10.10;100.00;98305.28;1824089;78;20407;-70
2023/10/27 05:25:39;;;;;;;;;;;;;;;10.14;100.00;98312.70;1818467;77;20103;-69
2023/10/27 05:28:20;;;;;;;;;;;;;;;10.19;100.00;98309.29;1816015;78;20152;-68
2023/10/27 05:30:50;;;;;;;;;;;;;;;10.26;100.00;98302.64;1794763;78;20169;-70
2023/10/27 05:33:14;;;;;;;;;;;;;;;10.33;100.00;98299.88;1811343;78;20129;-70
2023/10/27 05:38:21;;;;;;;;;;;;;;;10.47;100.00;98295.29;1815105;78;20433;-71
2023/10/27 05:40:47;;;;;;;;;;;;;;;10.55;100.00;98311.09;1813161;78;20295;-71
2023/10/27 05:43:20;;;;;;;;;;;;;;;10.61;100.00;98310.11;1830043;78;20098;-66
2023/10/27 05:45:47;;;;;;;;;;;;;;;10.66;100.00;98307.95;1823976;78;20266;-68
2023/10/27 05:48:15;;;;;;;;;;;;;;;10.72;100.00;98314.91;1817567;78;20129;-73
2023/10/27 06:33:32;;;;;;;;;;;;;;;11.63;100.00;98322.61;1792430;79;20127;-69
2023/10/27 06:35:59;;;;;;;;;;;;;;;11.69;100.00;98323.38;1819568;79;20948;-67
2023/10/27 06:38:26;;;;;;;;;;;;;;;11.73;100.00;98322.16;1821177;79;20092;-67
2023/10/27 06:40:53;;;;;;;;;;;;;;;11.80;100.00;98323.30;1821474;79;20127;-71
2023/10/27 06:43:20;;;;;;;;;;;;;;;11.87;100.00;98328.80;1795560;79;20108;-68
2023/10/27 06:45:47;;;;;;;;;;;;;;;11.93;100.00;98332.17;1782256;81;20104;-70
2023/10/27 06:48:13;;;;;;;;;;;;;;;11.97;100.00;98329.16;1810570;79;20165;-71
2023/10/27 07:00:33;;;;;;;;;;;;;;;11.96;100.00;98343.16;1826441;79;20111;-67
2023/10/27 07:03:00;;;;;;;;;;;;;;;11.97;100.00;98342.69;1813871;79;20156;-65
2023/10/27 07:05:29;;;;;;;;;;;;;;;11.96;100.00;98350.16;1799165;79;20157;-72
2023/10/27 07:07:55;;;;;;;;;;;;;;;11.95;100.00;98349.34;1804246;79;20140;-68
2023/10/27 07:10:22;;;;;;;;;;;;;;;11.97;100.00;98346.59;1781318;79;20153;-71
2023/10/27 07:12:49;;;;;;;;;;;;;;;11.96;100.00;98352.77;1787719;79;20088;-72
2023/10/27 07:15:16;;;;;;;;;;;;;;;11.97;100.00;98351.81;1805834;79;20093;-70
2023/10/27 07:17:42;;;;;;;;;;;;;;;11.97;100.00;98353.94;1801527;78;20128;-69
2023/10/27 07:20:10;;;;;;;;;;;;;;;11.99;100.00;98351.20;1784185;79;20112;-68
2023/10/27 07:22:37;;;;;;;;;;;;;;;12.00;100.00;98348.91;1782889;79;20108;-68
2023/10/27 07:25:04;;;;;;;;;;;;;;;12.03;100.00;98348.64;1789847;79;20125;-67
2023/10/27 07:27:31;;;;;;;;;;;;;;;12.06;100.00;98352.76;1793201;79;20386;-70
2023/10/27 07:29:57;;;;;;;;;;;;;;;12.06;100.00;98354.89;1784678;79;20100;-71
2023/10/27 07:32:24;;;;;;;;;;;;;;;12.07;100.00;98360.45;1770509;81;20116;-69
2023/10/27 07:34:53;;;;;;;;;;;;;;;12.11;100.00;98359.70;1770747;81;20418;-72
2023/10/27 07:37:21;;;;;;;;;;;;;;;12.13;100.00;98370.34;1793194;79;20384;-73
2023/10/27 07:39:48;;;;;;;;;;;;;;;12.14;100.00;98380.30;1791419;79;20378;-70
2023/10/27 07:42:14;;;;;;;;;;;;;;;12.16;100.00;98384.42;1770257;79;20171;-71
2023/10/27 07:44:41;;;;;;;;;;;;;;;12.20;100.00;98395.42;1791531;78;20098;-70
2023/10/27 07:47:35;;;;;;;;;;;;;;;12.20;100.00;98393.63;1809461;79;20113;-70
2023/10/27 07:50:08;;;;;;;;;;;;;;;12.20;100.00;98390.20;1785333;79;20536;-70
2023/10/27 07:52:35;;;;;;;;;;;;;;;12.24;100.00;98394.19;1782118;80;20398;-69
2023/10/27 08:30:17;;;;;;;;;;;;;;;13.52;100.00;98414.61;1808151;79;20149;-71
2023/10/27 08:32:44;;;;;;;;;;;;;;;13.56;100.00;98404.69;1816246;79;20172;-73
2023/10/27 08:35:11;;;;;;;;;;;;;;;13.53;100.00;98407.59;1803585;79;20138;-70
2023/10/27 08:37:38;;;;;;;;;;;;;;;13.50;100.00;98402.65;1806574;79;20394;-68
2023/10/27 09:03:19;;;;;;;;;;;;;;;13.75;100.00;98422.89;1795120;79;20167;-68
2023/10/27 09:05:54;;;;;;;;;;;;;;;13.77;100.00;98421.44;1801976;79;20143;-69
2023/10/27 09:08:21;;;;;;;;;;;;;;;13.79;100.00;98416.88;1801773;79;20157;-69
2023/10/27 09:47:50;;;;;;;;;;;;;;;13.93;100.00;98439.47;1753851;79;20145;-68
2023/10/27 09:50:24;;;;;;;;;;;;;;;13.83;100.00;98438.69;1804833;79;20160;-67
2023/10/27 09:52:50;;;;;;;;;;;;;;;13.74;100.00;98433.02;1809917;79;20124;-66
2023/10/27 10:51:11;;;;;;;;;;;;;;;14.03;100.00;98414.04;1772126;79;20143;-68
2023/10/27 10:53:34;;;;;;;;;;;;;;;14.07;100.00;98405.41;1808310;79;20399;-68
2023/10/27 10:56:00;;;;;;;;;;;;;;;14.10;100.00;98414.77;1796526;79;20120;-69
2023/10/27 10:58:36;;;;;;;;;;;;;;;14.09;100.00;98416.56;1801314;79;20094;-68
2023/10/27 11:01:03;;;;;;;;;;;;;;;14.09;100.00;98421.80;1799546;79;20177;-68
2023/10/27 11:03:33;;;;;;;;;;;;;;;14.09;100.00;98413.94;1819100;79;20106;-68
2023/10/27 11:06:03;;;;;;;;;;;;;;;14.10;100.00;98410.84;1774142;79;20104;-67
2023/10/27 11:08:37;;;;;;;;;;;;;;;14.11;100.00;98419.86;1798445;79;20102;-67
2023/10/27 11:11:05;;;;;;;;;;;;;;;14.14;100.00;98420.05;1803120;79;20094;-67
2023/10/27 11:13:34;;;;;;;;;;;;;;;14.17;100.00;98413.20;1798370;79;20100;-69
2023/10/27 11:16:01;;;;;;;;;;;;;;;14.20;100.00;98418.15;1764261;80;20430;-68
2023/10/27 11:18:29;;;;;;;;;;;;;;;14.24;100.00;98414.27;1798906;79;20352;-68
